createdAt,value
2023-02-16T00:02:07.179Z,80.92
2023-02-16T00:04:56.637Z,80.82
2023-02-16T00:07:47.419Z,81.29
2023-02-16T00:10:39.429Z,81.67
2023-02-16T00:13:47.105Z,81.58
2023-02-16T00:16:36.994Z,82.81
2023-02-16T00:19:29.459Z,83.21
2023-02-16T00:22:18.654Z,83.21
2023-02-16T00:25:09.668Z,84.84
2023-02-16T00:27:59.516Z,85.61
2023-02-16T00:30:50.290Z,86.31
2023-02-16T00:33:39.618Z,85.94
2023-02-16T00:36:28.838Z,87.28
2023-02-16T00:39:18.168Z,86.63
2023-02-16T00:42:18.286Z,86.69
2023-02-16T00:45:14.249Z,86.90
2023-02-16T00:48:03.690Z,87.57
2023-02-16T00:50:53.440Z,87.37
2023-02-16T00:53:42.683Z,86.98
2023-02-16T00:56:33.257Z,87.58
2023-02-16T00:59:24.702Z,88.01
2023-02-16T01:02:14.055Z,87.20
2023-02-16T01:05:03.424Z,87.23
2023-02-16T01:08:11.101Z,88.15
2023-02-16T01:11:11.261Z,87.94
2023-02-16T01:14:02.919Z,87.79
2023-02-16T01:16:56.177Z,88.67
2023-02-16T01:19:45.429Z,88.89
2023-02-16T01:22:34.988Z,88.60
2023-02-16T01:25:24.481Z,88.74
2023-02-16T01:28:22.361Z,89.05
2023-02-16T01:31:12.472Z,88.30
2023-02-16T01:34:03.295Z,88.65
2023-02-16T01:36:52.782Z,88.81
2023-02-16T01:39:41.976Z,88.66
2023-02-16T01:42:38.465Z,88.71
2023-02-16T01:45:35.088Z,88.32
2023-02-16T01:48:28.968Z,88.62
2023-02-16T01:51:26.021Z,88.73
2023-02-16T01:54:32.410Z,89.21
2023-02-16T01:57:35.244Z,88.89
2023-02-16T02:00:30.758Z,88.99
2023-02-16T02:03:42.623Z,88.95
2023-02-16T02:06:36.074Z,89.62
2023-02-16T02:09:35.088Z,90.13
2023-02-16T02:12:34.153Z,90.21
2023-02-16T02:15:29.842Z,90.00
2023-02-16T02:18:19.328Z,90.01
2023-02-16T02:21:56.729Z,89.38
2023-02-16T02:25:22.612Z,89.30
2023-02-16T02:28:20.650Z,89.82
2023-02-16T02:31:16.835Z,90.58
2023-02-16T02:34:18.385Z,91.32
2023-02-16T02:37:14.376Z,90.54
2023-02-16T02:40:16.823Z,90.23
2023-02-16T02:43:18.117Z,90.80
2023-02-16T02:46:14.202Z,90.87
2023-02-16T02:49:03.895Z,90.82
2023-02-16T02:51:53.348Z,90.25
2023-02-16T02:55:00.871Z,90.06
2023-02-16T02:58:09.334Z,90.50
2023-02-16T03:01:01.693Z,90.33
2023-02-16T03:03:58.247Z,90.51
2023-02-16T03:06:53.121Z,91.25
2023-02-16T03:09:42.579Z,90.58
2023-02-16T03:12:46.362Z,90.89
2023-02-16T03:15:37.549Z,91.20
2023-02-16T03:18:47.080Z,91.50
2023-02-16T03:21:54.805Z,90.85
2023-02-16T03:25:01.980Z,91.03
2023-02-16T03:28:09.253Z,91.46
2023-02-16T03:30:59.239Z,91.80
2023-02-16T03:33:54.762Z,91.89
2023-02-16T03:36:47.294Z,92.72
2023-02-16T03:39:57.017Z,92.52
2023-02-16T03:42:51.696Z,92.70
2023-02-16T03:45:43.741Z,92.40
2023-02-16T03:48:32.985Z,92.67
2023-02-16T03:51:23.643Z,93.62
2023-02-16T03:54:13.012Z,92.91
2023-02-16T03:57:02.408Z,93.22
2023-02-16T03:59:52.152Z,93.51
2023-02-16T04:02:41.365Z,93.49
2023-02-16T04:05:30.770Z,93.02
2023-02-16T04:08:21.336Z,92.67
2023-02-16T04:11:24.329Z,92.73
2023-02-16T04:14:13.553Z,93.57
2023-02-16T04:17:03.978Z,93.85
2023-02-16T04:19:53.414Z,93.35
2023-02-16T04:22:43.512Z,92.75
2023-02-16T04:25:34.125Z,93.55
2023-02-16T04:28:23.968Z,94.21
2023-02-16T04:31:13.271Z,93.28
2023-02-16T04:34:02.649Z,93.39
2023-02-16T04:36:51.996Z,93.53
2023-02-16T04:39:41.264Z,93.38
2023-02-16T04:42:31.836Z,93.88
2023-02-16T04:45:21.270Z,93.66
2023-02-16T04:48:10.470Z,93.79
2023-02-16T04:50:59.671Z,93.64
2023-02-16T04:53:49.138Z,93.93
2023-02-16T04:56:38.735Z,93.78
2023-02-16T04:59:29.389Z,93.84
2023-02-16T05:02:18.829Z,93.76
2023-02-16T05:05:09.784Z,93.32
2023-02-16T05:07:58.984Z,93.22
2023-02-16T05:11:08.952Z,93.82
2023-02-16T05:14:15.945Z,93.42
2023-02-16T05:17:06.616Z,93.44
2023-02-16T05:19:58.350Z,93.61
2023-02-16T05:22:47.579Z,93.25
2023-02-16T05:25:36.797Z,93.42
2023-02-16T05:28:26.090Z,93.12
2023-02-16T05:31:15.386Z,93.46
2023-02-16T05:34:06.123Z,93.64
2023-02-16T05:36:55.746Z,93.58
2023-02-16T05:39:45.405Z,93.07
2023-02-16T05:42:34.635Z,93.06
2023-02-16T05:45:23.898Z,93.09
2023-02-16T05:48:13.162Z,93.66
2023-02-16T05:51:04.051Z,93.46
2023-02-16T05:53:53.482Z,93.53
2023-02-16T05:56:42.764Z,93.88
2023-02-16T05:59:32.249Z,93.43
2023-02-16T06:02:21.580Z,93.16
2023-02-16T06:05:10.968Z,93.69
2023-02-16T06:08:01.563Z,93.42
2023-02-16T06:10:52.360Z,93.95
2023-02-16T06:13:41.658Z,93.83
2023-02-16T06:16:32.799Z,93.91
2023-02-16T06:19:22.238Z,93.30
2023-02-16T06:22:11.856Z,93.20
2023-02-16T06:25:02.514Z,93.02
2023-02-16T06:27:52.863Z,92.82
2023-02-16T06:30:42.791Z,93.67
2023-02-16T06:33:32.055Z,93.37
2023-02-16T06:36:21.782Z,93.74
2023-02-16T06:39:11.042Z,93.50
2023-02-16T06:42:01.582Z,93.70
2023-02-16T06:44:50.812Z,93.75
2023-02-16T06:47:40.463Z,93.58
2023-02-16T06:50:29.832Z,93.16
2023-02-16T06:53:19.351Z,93.35
2023-02-16T06:56:09.057Z,94.08
2023-02-16T06:58:59.748Z,93.55
2023-02-16T07:01:49.309Z,93.34
2023-02-16T07:04:38.652Z,93.84
2023-02-16T07:07:27.927Z,93.33
2023-02-16T07:10:17.163Z,93.34
2023-02-16T07:13:06.580Z,92.54
2023-02-16T07:15:57.240Z,93.15
2023-02-16T07:18:47.564Z,93.25
2023-02-16T07:21:37.168Z,93.66
2023-02-16T07:24:26.583Z,93.46
2023-02-16T07:27:15.925Z,93.68
2023-02-16T07:30:06.160Z,92.94
2023-02-16T07:32:56.770Z,92.75
2023-02-16T07:35:46.011Z,92.72
2023-02-16T07:38:35.858Z,92.73
2023-02-16T07:41:25.638Z,92.75
2023-02-16T07:44:16.196Z,92.96
2023-02-16T07:47:05.756Z,92.84
2023-02-16T07:49:56.447Z,92.61
2023-02-16T07:52:45.854Z,92.39
2023-02-16T07:55:39.710Z,92.71
2023-02-16T07:58:29.320Z,92.60
2023-02-16T08:01:18.772Z,92.84
2023-02-16T08:04:08.164Z,93.15
2023-02-16T08:06:59.166Z,92.78
2023-02-16T08:09:48.722Z,92.96
2023-02-16T08:12:38.789Z,92.62
2023-02-16T08:15:28.352Z,92.85
2023-02-16T08:18:17.721Z,92.26
2023-02-16T08:21:14.436Z,92.29
2023-02-16T08:24:08.457Z,92.29
2023-02-16T08:26:57.889Z,92.26
2023-02-16T08:29:47.151Z,92.15
2023-02-16T08:32:36.376Z,91.86
2023-02-16T08:35:25.614Z,91.73
2023-02-16T08:38:17.433Z,92.09
2023-02-16T08:41:08.246Z,91.82
2023-02-16T08:43:57.739Z,91.66
2023-02-16T08:46:49.684Z,91.74
2023-02-16T08:49:39.622Z,92.09
2023-02-16T08:52:29.099Z,91.78
2023-02-16T08:55:18.586Z,91.94
2023-02-16T08:58:09.264Z,91.93
2023-02-16T09:00:59.069Z,92.35
2023-02-16T09:03:48.761Z,92.58
2023-02-16T09:06:40.098Z,92.17
2023-02-16T09:09:29.881Z,92.31
2023-02-16T09:12:19.131Z,92.08
2023-02-16T09:15:14.394Z,92.23
2023-02-16T09:18:03.672Z,92.43
2023-02-16T09:20:53.737Z,92.54
2023-02-16T09:23:45.035Z,92.30
2023-02-16T09:26:37.077Z,92.36
2023-02-16T09:29:26.542Z,92.18
2023-02-16T09:32:17.340Z,92.17
2023-02-16T09:35:07.720Z,91.67
2023-02-16T09:37:57.904Z,91.71
2023-02-16T09:40:47.445Z,91.46
2023-02-16T09:43:48.906Z,91.27
2023-02-16T09:46:38.788Z,91.62
2023-02-16T09:49:36.205Z,90.86
2023-02-16T09:52:36.019Z,90.51
2023-02-16T09:55:32.243Z,90.80
2023-02-16T09:58:29.115Z,90.53
2023-02-16T10:01:31.831Z,90.61
2023-02-16T10:04:40.247Z,90.11
2023-02-16T10:07:43.755Z,89.43
2023-02-16T10:10:45.855Z,89.69
2023-02-16T10:13:44.086Z,89.76
2023-02-16T10:16:42.737Z,89.71
2023-02-16T10:19:41.099Z,89.15
2023-02-16T10:22:36.936Z,89.24
2023-02-16T10:25:36.054Z,89.05
2023-02-16T10:28:38.207Z,88.68
2023-02-16T10:31:37.234Z,88.83
2023-02-16T10:34:46.809Z,88.42
2023-02-16T10:37:59.320Z,88.56
2023-02-16T10:40:57.019Z,87.92
2023-02-16T10:43:54.372Z,88.02
2023-02-16T10:46:47.817Z,87.81
2023-02-16T10:49:38.686Z,87.64
2023-02-16T10:52:33.988Z,87.59
2023-02-16T10:55:23.389Z,87.40
2023-02-16T10:58:22.551Z,87.45
2023-02-16T11:01:17.073Z,87.30
2023-02-16T11:04:06.806Z,87.45
2023-02-16T11:07:07.382Z,87.49
2023-02-16T11:10:01.379Z,87.52
2023-02-16T11:12:58.165Z,87.34
2023-02-16T11:15:54.985Z,86.89
2023-02-16T11:18:49.806Z,86.64
2023-02-16T11:21:48.015Z,85.70
2023-02-16T11:24:39.790Z,85.72
2023-02-16T11:27:29.994Z,84.47
2023-02-16T11:30:29.483Z,83.92
2023-02-16T11:33:25.176Z,83.58
2023-02-16T11:36:26.210Z,83.19
2023-02-16T11:39:21.702Z,82.80
2023-02-16T11:42:30.303Z,81.64
2023-02-16T11:45:30.938Z,81.42
2023-02-16T11:48:28.975Z,80.89
2023-02-16T11:51:34.326Z,79.53
2023-02-16T11:54:24.561Z,79.47
2023-02-16T11:57:15.890Z,79.63
2023-02-16T12:00:22.002Z,78.90
2023-02-16T12:03:52.266Z,78.15
2023-02-16T12:06:57.699Z,77.39
2023-02-16T12:09:57.056Z,75.54
2023-02-16T12:13:03.050Z,74.72
2023-02-16T12:16:02.091Z,74.47
2023-02-16T12:19:07.890Z,73.43
2023-02-16T12:22:10.414Z,72.39
2023-02-16T12:25:19.865Z,71.61
2023-02-16T12:28:21.328Z,70.49
2023-02-16T12:31:22.474Z,67.99
2023-02-16T12:34:24.690Z,66.97
2023-02-16T12:37:27.011Z,66.82
2023-02-16T12:40:29.915Z,66.68
2023-02-16T12:43:35.982Z,65.18
2023-02-16T12:46:33.040Z,65.63
2023-02-16T12:49:27.566Z,65.40
2023-02-16T12:52:38.617Z,64.94
2023-02-16T12:55:32.267Z,65.07
2023-02-16T12:58:29.995Z,64.36
2023-02-16T13:01:25.222Z,64.57
2023-02-16T13:04:26.256Z,63.19
2023-02-16T13:07:22.810Z,62.32
2023-02-16T13:10:23.991Z,61.68
2023-02-16T13:13:19.373Z,61.12
2023-02-16T13:16:29.058Z,60.56
2023-02-16T13:19:19.597Z,60.86
2023-02-16T13:22:52.918Z,60.55
2023-02-16T13:26:10.949Z,61.21
2023-02-16T13:29:33.454Z,61.18
2023-02-16T13:33:02.667Z,61.14
2023-02-16T13:36:15.205Z,62.19
2023-02-16T13:39:38.942Z,62.40
2023-02-16T13:42:47.198Z,63.33
2023-02-16T13:45:41.554Z,63.33
2023-02-16T13:48:47.365Z,63.95
2023-02-16T13:51:46.463Z,64.35
2023-02-16T13:54:40.033Z,64.34
2023-02-16T13:58:06.818Z,64.24
2023-02-16T14:00:56.631Z,65.03
2023-02-16T14:03:47.893Z,65.53
2023-02-16T14:06:40.009Z,65.29
2023-02-16T14:09:57.443Z,65.07
2023-02-16T14:12:46.885Z,64.97
2023-02-16T14:15:37.079Z,64.76
2023-02-16T14:18:32.889Z,63.98
2023-02-16T14:21:37.190Z,62.97
2023-02-16T14:24:33.903Z,62.07
2023-02-16T14:27:46.080Z,62.18
2023-02-16T14:30:44.586Z,61.76
2023-02-16T14:33:44.159Z,62.56
2023-02-16T14:36:36.025Z,62.58
2023-02-16T14:39:27.337Z,62.50
2023-02-16T14:42:19.948Z,62.84
2023-02-16T14:45:38.776Z,63.33
2023-02-16T14:49:14.932Z,64.40
2023-02-16T14:52:49.960Z,64.89
2023-02-16T14:56:22.427Z,65.83
2023-02-16T14:59:29.186Z,66.48
2023-02-16T15:02:31.856Z,67.00
2023-02-16T15:05:24.114Z,67.82
2023-02-16T15:08:22.595Z,67.56
2023-02-16T15:11:21.163Z,68.23
2023-02-16T15:14:12.865Z,68.77
2023-02-16T15:17:02.160Z,69.39
2023-02-16T15:19:52.067Z,68.94
2023-02-16T15:22:49.361Z,70.15
2023-02-16T15:25:42.197Z,70.90
2023-02-16T15:28:34.375Z,71.28
2023-02-16T15:31:31.088Z,71.26
2023-02-16T15:34:33.349Z,72.16
2023-02-16T15:37:32.688Z,72.36
2023-02-16T15:40:30.207Z,72.37
2023-02-16T15:43:32.780Z,71.57
2023-02-16T15:46:29.249Z,70.61
2023-02-16T15:49:30.580Z,70.44
2023-02-16T15:52:29.073Z,70.76
2023-02-16T15:55:18.693Z,70.73
2023-02-16T15:58:07.956Z,70.92
2023-02-16T16:00:58.664Z,70.27
2023-02-16T16:03:48.747Z,70.07
2023-02-16T16:06:41.321Z,69.51
2023-02-16T16:09:33.763Z,70.03
2023-02-16T16:12:24.184Z,71.04
2023-02-16T16:15:20.938Z,72.17
2023-02-16T16:18:43.418Z,72.74
2023-02-16T16:21:34.377Z,74.15
2023-02-16T16:24:38.990Z,75.68
2023-02-16T16:27:36.334Z,76.01
2023-02-16T16:30:31.659Z,75.83
2023-02-16T16:33:22.335Z,76.40
2023-02-16T16:36:13.722Z,76.97
2023-02-16T16:39:23.842Z,77.33
2023-02-16T16:42:24.952Z,77.65
2023-02-16T16:45:37.905Z,77.95
2023-02-16T16:48:36.445Z,78.56
2023-02-16T16:51:40.753Z,78.51
2023-02-16T16:54:35.746Z,79.07
2023-02-16T16:57:25.260Z,79.26
2023-02-16T17:00:16.352Z,80.04
2023-02-16T17:03:08.897Z,80.77
2023-02-16T17:05:59.823Z,81.24
2023-02-16T17:08:49.650Z,81.92
2023-02-16T17:11:40.750Z,81.67
2023-02-16T17:14:29.986Z,82.05
2023-02-16T17:17:19.272Z,82.23
2023-02-16T17:20:15.982Z,82.40
2023-02-16T17:23:06.674Z,82.24
2023-02-16T17:25:55.965Z,82.21
2023-02-16T17:28:45.199Z,82.61
2023-02-16T17:31:34.800Z,82.64
2023-02-16T17:34:29.452Z,82.92
2023-02-16T17:37:19.666Z,82.76
2023-02-16T17:40:17.505Z,83.03
2023-02-16T17:43:14.616Z,83.26
2023-02-16T17:46:06.699Z,82.89
2023-02-16T17:48:56.428Z,83.35
2023-02-16T17:51:45.598Z,83.41
2023-02-16T17:54:34.800Z,83.51
2023-02-16T17:57:25.413Z,83.34
2023-02-16T18:00:19.525Z,83.45
2023-02-16T18:03:10.002Z,83.30
2023-02-16T18:05:59.255Z,83.08
2023-02-16T18:08:48.625Z,83.61
2023-02-16T18:11:37.912Z,83.72
2023-02-16T18:14:28.548Z,83.65
2023-02-16T18:17:17.963Z,83.52
2023-02-16T18:20:09.306Z,83.81
2023-02-16T18:22:58.542Z,84.05
2023-02-16T18:25:47.793Z,83.84
2023-02-16T18:28:37.157Z,84.40
2023-02-16T18:31:27.875Z,83.58
2023-02-16T18:34:17.174Z,83.44
2023-02-16T18:37:06.479Z,83.51
2023-02-16T18:39:55.697Z,83.34
2023-02-16T18:42:45.375Z,83.32
2023-02-16T18:45:34.686Z,83.45
2023-02-16T18:48:25.467Z,83.55
2023-02-16T18:51:16.564Z,83.92
2023-02-16T18:54:06.322Z,83.76
2023-02-16T18:56:55.493Z,83.21
2023-02-16T18:59:44.894Z,83.23
2023-02-16T19:02:34.164Z,83.43
2023-02-16T19:05:25.380Z,84.60
2023-02-16T19:08:15.260Z,84.86
2023-02-16T19:11:04.616Z,84.76
2023-02-16T19:13:53.925Z,84.25
2023-02-16T19:16:43.397Z,84.45
2023-02-16T19:19:33.226Z,84.12
2023-02-16T19:22:23.923Z,84.12
2023-02-16T19:25:13.215Z,84.13
2023-02-16T19:28:02.497Z,83.71
2023-02-16T19:30:51.807Z,83.48
2023-02-16T19:33:42.324Z,83.82
2023-02-16T19:36:34.204Z,83.39
2023-02-16T19:39:24.917Z,82.97
2023-02-16T19:42:14.451Z,82.95
2023-02-16T19:45:05.343Z,82.94
2023-02-16T19:47:54.594Z,82.14
2023-02-16T19:50:43.942Z,82.12
2023-02-16T19:53:33.942Z,82.14
2023-02-16T19:56:27.553Z,82.09
2023-02-16T19:59:18.376Z,81.89
2023-02-16T20:02:08.439Z,82.03
2023-02-16T20:04:57.660Z,82.42
2023-02-16T20:07:47.006Z,82.10
2023-02-16T20:10:40.709Z,82.04
2023-02-16T20:13:31.414Z,82.33
2023-02-16T20:16:21.995Z,81.68
2023-02-16T20:19:12.007Z,82.12
2023-02-16T20:22:01.512Z,82.30
2023-02-16T20:24:51.295Z,82.24
2023-02-16T20:27:41.566Z,81.95
2023-02-16T20:30:32.393Z,82.12
2023-02-16T20:33:22.139Z,81.76
2023-02-16T20:36:12.029Z,81.97
2023-02-16T20:39:01.571Z,81.66
2023-02-16T20:41:51.159Z,82.03
2023-02-16T20:44:40.601Z,81.84
2023-02-16T20:47:31.972Z,82.17
2023-02-16T20:50:21.369Z,81.78
2023-02-16T20:53:10.742Z,81.50
2023-02-16T20:56:07.264Z,81.73
2023-02-16T20:58:58.650Z,81.57
2023-02-16T21:01:52.330Z,81.46
2023-02-16T21:04:43.296Z,81.32
2023-02-16T21:07:32.481Z,80.88
2023-02-16T21:10:21.819Z,81.47
2023-02-16T21:13:11.072Z,80.84
2023-02-16T21:16:00.791Z,80.89
2023-02-16T21:18:50.176Z,80.79
2023-02-16T21:21:41.757Z,80.82
2023-02-16T21:24:30.947Z,80.96
2023-02-16T21:27:20.188Z,80.31
2023-02-16T21:30:10.829Z,80.79
2023-02-16T21:33:00.244Z,80.82
2023-02-16T21:35:49.590Z,80.77
2023-02-16T21:38:41.627Z,80.29
2023-02-16T21:41:31.335Z,80.35
2023-02-16T21:44:20.492Z,79.76
2023-02-16T21:47:30.096Z,80.15
2023-02-16T21:50:19.740Z,80.42
2023-02-16T21:53:10.587Z,79.95
2023-02-16T21:56:19.451Z,80.30
2023-02-16T21:59:12.213Z,80.13
2023-02-16T22:02:01.486Z,80.00
2023-02-16T22:04:50.882Z,80.32
2023-02-16T22:07:40.164Z,79.54
2023-02-16T22:10:30.169Z,80.39
2023-02-16T22:13:21.007Z,79.68
2023-02-16T22:16:12.531Z,80.11
2023-02-16T22:19:07.261Z,79.88
2023-02-16T22:21:56.996Z,79.92
2023-02-16T22:24:46.229Z,79.54
2023-02-16T22:27:35.500Z,80.14
2023-02-16T22:30:26.338Z,80.54
2023-02-16T22:33:15.676Z,80.93
2023-02-16T22:36:14.006Z,80.47
2023-02-16T22:39:03.336Z,80.60
2023-02-16T22:41:53.021Z,80.69
2023-02-16T22:44:42.328Z,80.00
2023-02-16T22:47:33.076Z,80.14
2023-02-16T22:50:22.825Z,79.91
2023-02-16T22:53:12.172Z,80.32
2023-02-16T22:56:02.454Z,80.00
2023-02-16T22:58:52.048Z,80.53
2023-02-16T23:01:41.379Z,80.67
2023-02-16T23:04:32.410Z,80.38
2023-02-16T23:07:21.811Z,80.00
2023-02-16T23:10:11.762Z,80.46
2023-02-16T23:13:01.197Z,80.57
2023-02-16T23:15:50.626Z,80.56
2023-02-16T23:18:40.207Z,80.22
2023-02-16T23:21:33.230Z,80.73
2023-02-16T23:24:24.631Z,80.97
2023-02-16T23:27:13.991Z,80.29
2023-02-16T23:30:03.759Z,80.40
2023-02-16T23:32:53.059Z,80.95
2023-02-16T23:35:43.547Z,81.70
2023-02-16T23:38:34.409Z,81.50
2023-02-16T23:41:23.663Z,81.30
2023-02-16T23:44:15.409Z,81.57
2023-02-16T23:47:04.692Z,81.55
2023-02-16T23:49:53.997Z,81.82
2023-02-16T23:52:43.805Z,82.15
2023-02-16T23:55:34.499Z,82.16
2023-02-16T23:58:23.712Z,82.06
